sensor_id;sensor_type;location;lat;lon;timestamp;pressure;altitude;pressure_sealevel;temperature;humidity
45467;BME280;31212;49.734;8.490;2023-04-01T00:01:43;98607.66;;;9.79;73.30
45467;BME280;31212;49.734;8.490;2023-04-01T00:04:10;98579.84;;;9.85;72.76
45467;BME280;31212;49.734;8.490;2023-04-01T00:06:36;98591.94;;;9.85;72.68
45467;BME280;31212;49.734;8.490;2023-04-01T00:09:03;98584.34;;;9.77;73.57
45467;BME280;31212;49.734;8.490;2023-04-01T00:11:31;98599.94;;;9.75;73.19
45467;BME280;31212;49.734;8.490;2023-04-01T00:13:58;98594.56;;;9.83;72.92
45467;BME280;31212;49.734;8.490;2023-04-01T00:16:25;98588.44;;;9.87;73.04
45467;BME280;31212;49.734;8.490;2023-04-01T00:18:51;98584.09;;;9.88;72.86
45467;BME280;31212;49.734;8.490;2023-04-01T00:21:18;98593.56;;;9.89;73.07
45467;BME280;31212;49.734;8.490;2023-04-01T00:23:45;98580.81;;;9.80;73.12
45467;BME280;31212;49.734;8.490;2023-04-01T00:26:12;98569.56;;;9.81;73.62
45467;BME280;31212;49.734;8.490;2023-04-01T00:28:41;98555.56;;;9.89;72.42
45467;BME280;31212;49.734;8.490;2023-04-01T00:31:09;98563.47;;;9.83;73.04
45467;BME280;31212;49.734;8.490;2023-04-01T00:33:36;98557.31;;;9.87;72.46
45467;BME280;31212;49.734;8.490;2023-04-01T00:36:07;98550.47;;;9.85;72.82
45467;BME280;31212;49.734;8.490;2023-04-01T00:38:34;98561.72;;;9.84;72.44
45467;BME280;31212;49.734;8.490;2023-04-01T00:41:01;98558.25;;;9.85;72.64
45467;BME280;31212;49.734;8.490;2023-04-01T00:43:28;98578.09;;;9.86;72.64
45467;BME280;31212;49.734;8.490;2023-04-01T00:45:57;98579.03;;;9.83;72.81
45467;BME280;31212;49.734;8.490;2023-04-01T00:48:26;98561.84;;;9.79;73.18
45467;BME280;31212;49.734;8.490;2023-04-01T00:50:57;98561.72;;;9.84;72.80
45467;BME280;31212;49.734;8.490;2023-04-01T00:53:24;98556.53;;;9.84;72.86
45467;BME280;31212;49.734;8.490;2023-04-01T00:55:56;98549.59;;;9.86;72.58
45467;BME280;31212;49.734;8.490;2023-04-01T00:58:25;98562.59;;;9.84;72.86
45467;BME280;31212;49.734;8.490;2023-04-01T01:00:54;98561.75;;;9.82;72.77
45467;BME280;31212;49.734;8.490;2023-04-01T01:03:22;98560.88;;;9.83;72.97
45467;BME280;31212;49.734;8.490;2023-04-01T01:06:09;98580.03;;;9.77;72.94
45467;BME280;31212;49.734;8.490;2023-04-01T01:08:54;98561.00;;;9.79;72.46
45467;BME280;31212;49.734;8.490;2023-04-01T01:11:27;98557.50;;;9.81;73.05
45467;BME280;31212;49.734;8.490;2023-04-01T01:13:58;98549.72;;;9.80;72.75
45467;BME280;31212;49.734;8.490;2023-04-01T01:16:30;98552.34;;;9.78;72.33
45467;BME280;31212;49.734;8.490;2023-04-01T01:19:04;98561.13;;;9.72;73.02
45467;BME280;31212;49.734;8.490;2023-04-01T01:21:45;98563.00;;;9.66;73.13
45467;BME280;31212;49.734;8.490;2023-04-01T01:24:42;98555.13;;;9.72;72.67
45467;BME280;31212;49.734;8.490;2023-04-01T01:27:16;98549.84;;;9.75;72.31
45467;BME280;31212;49.734;8.490;2023-04-01T01:30:01;98537.72;;;9.75;72.90
45467;BME280;31212;49.734;8.490;2023-04-01T01:32:55;98525.69;;;9.74;72.81
45467;BME280;31212;49.734;8.490;2023-04-01T01:35:31;98535.22;;;9.72;72.64
45467;BME280;31212;49.734;8.490;2023-04-01T01:38:03;98523.97;;;9.73;72.66
45467;BME280;31212;49.734;8.490;2023-04-01T01:40:32;98531.88;;;9.67;72.74
45467;BME280;31212;49.734;8.490;2023-04-01T01:43:03;98544.75;;;9.70;72.49
45467;BME280;31212;49.734;8.490;2023-04-01T01:45:33;98536.19;;;9.68;72.68
45467;BME280;31212;49.734;8.490;2023-04-01T01:48:02;98544.00;;;9.67;73.24
45467;BME280;31212;49.734;8.490;2023-04-01T01:50:32;98547.59;;;9.59;73.03
45467;BME280;31212;49.734;8.490;2023-04-01T01:53:04;98547.53;;;9.63;73.32
45467;BME280;31212;49.734;8.490;2023-04-01T01:55:33;98553.69;;;9.58;73.02
45467;BME280;31212;49.734;8.490;2023-04-01T01:58:05;98548.53;;;9.57;73.53
45467;BME280;31212;49.734;8.490;2023-04-01T02:00:35;98565.94;;;9.52;73.51
45467;BME280;31212;49.734;8.490;2023-04-01T02:03:02;98575.41;;;9.51;73.40
45467;BME280;31212;49.734;8.490;2023-04-01T02:05:31;98596.31;;;9.43;73.86
45467;BME280;31212;49.734;8.490;2023-04-01T02:08:07;98602.31;;;9.46;73.91
45467;BME280;31212;49.734;8.490;2023-04-01T02:10:39;98603.22;;;9.43;74.28
45467;BME280;31212;49.734;8.490;2023-04-01T02:13:13;98611.91;;;9.40;74.18
45467;BME280;31212;49.734;8.490;2023-04-01T02:15:46;98637.13;;;9.32;74.93
45467;BME280;31212;49.734;8.490;2023-04-01T02:18:15;98637.91;;;9.36;75.21
45467;BME280;31212;49.734;8.490;2023-04-01T02:20:44;98647.44;;;9.35;75.16
45467;BME280;31212;49.734;8.490;2023-04-01T02:23:12;98634.25;;;9.46;75.00
45467;BME280;31212;49.734;8.490;2023-04-01T02:25:40;98635.00;;;9.51;74.63
45467;BME280;31212;49.734;8.490;2023-04-01T02:28:09;98622.19;;;9.45;74.81
45467;BME280;31212;49.734;8.490;2023-04-01T02:30:39;98629.19;;;9.40;75.17
45467;BME280;31212;49.734;8.490;2023-04-01T02:33:07;98649.84;;;9.43;75.50
45467;BME280;31212;49.734;8.490;2023-04-01T02:35:36;98653.41;;;9.37;75.28
45467;BME280;31212;49.734;8.490;2023-04-01T02:38:04;98651.78;;;9.33;74.98
45467;BME280;31212;49.734;8.490;2023-04-01T02:40:41;98650.03;;;9.35;75.36
45467;BME280;31212;49.734;8.490;2023-04-01T02:43:09;98649.91;;;9.40;74.92
45467;BME280;31212;49.734;8.490;2023-04-01T02:45:36;98629.13;;;9.43;74.72
45467;BME280;31212;49.734;8.490;2023-04-01T02:48:03;98632.66;;;9.39;74.71
45467;BME280;31212;49.734;8.490;2023-04-01T02:50:30;98644.88;;;9.32;75.05
45467;BME280;31212;49.734;8.490;2023-04-01T02:52:57;98654.44;;;9.30;75.62
45467;BME280;31212;49.734;8.490;2023-04-01T02:55:25;98664.84;;;9.27;75.75
45467;BME280;31212;49.734;8.490;2023-04-01T02:57:51;98668.25;;;9.29;76.04
45467;BME280;31212;49.734;8.490;2023-04-01T03:00:18;98675.38;;;9.19;75.78
45467;BME280;31212;49.734;8.490;2023-04-01T03:02:44;98677.03;;;9.20;76.24
45467;BME280;31212;49.734;8.490;2023-04-01T03:05:11;98690.06;;;9.17;76.53
45467;BME280;31212;49.734;8.490;2023-04-01T03:07:38;98695.19;;;9.19;76.34
45467;BME280;31212;49.734;8.490;2023-04-01T03:10:05;98705.66;;;9.14;76.67
45467;BME280;31212;49.734;8.490;2023-04-01T03:12:33;98709.06;;;9.16;76.73
45467;BME280;31212;49.734;8.490;2023-04-01T03:15:00;98707.41;;;9.12;77.02
45467;BME280;31212;49.734;8.490;2023-04-01T03:17:27;98732.56;;;9.05;77.46
45467;BME280;31212;49.734;8.490;2023-04-01T03:19:54;98725.66;;;9.06;77.60
45467;BME280;31212;49.734;8.490;2023-04-01T03:22:21;98724.75;;;9.08;77.88
45467;BME280;31212;49.734;8.490;2023-04-01T03:24:47;98727.28;;;9.12;77.69
45467;BME280;31212;49.734;8.490;2023-04-01T03:27:14;98729.03;;;9.11;77.67
45467;BME280;31212;49.734;8.490;2023-04-01T03:29:42;98731.66;;;9.08;77.47
45467;BME280;31212;49.734;8.490;2023-04-01T03:32:08;98717.72;;;9.14;76.89
45467;BME280;31212;49.734;8.490;2023-04-01T03:34:35;98718.66;;;9.11;77.34
45467;BME280;31212;49.734;8.490;2023-04-01T03:37:01;98727.22;;;9.15;77.43
45467;BME280;31212;49.734;8.490;2023-04-01T03:39:30;98717.84;;;9.09;77.23
45467;BME280;31212;49.734;8.490;2023-04-01T03:41:57;98726.47;;;9.08;77.43
45467;BME280;31212;49.734;8.490;2023-04-01T03:44:23;98720.38;;;9.11;77.45
45467;BME280;31212;49.734;8.490;2023-04-01T03:46:53;98712.50;;;9.18;77.11
45467;BME280;31212;49.734;8.490;2023-04-01T03:49:20;98702.97;;;9.19;76.84
45467;BME280;31212;49.734;8.490;2023-04-01T03:51:46;98699.50;;;9.20;76.69
45467;BME280;31212;49.734;8.490;2023-04-01T03:54:13;98696.91;;;9.20;76.66
45467;BME280;31212;49.734;8.490;2023-04-01T03:56:40;98691.78;;;9.18;76.79
45467;BME280;31212;49.734;8.490;2023-04-01T03:59:07;98686.50;;;9.23;76.65
45467;BME280;31212;49.734;8.490;2023-04-01T04:01:34;98680.44;;;9.24;76.83
45467;BME280;31212;49.734;8.490;2023-04-01T04:04:02;98670.88;;;9.28;76.15
45467;BME280;31212;49.734;8.490;2023-04-01T04:06:30;98669.06;;;9.33;76.03
45467;BME280;31212;49.734;8.490;2023-04-01T04:08:56;98649.13;;;9.36;75.96
45467;BME280;31212;49.734;8.490;2023-04-01T04:11:23;98648.28;;;9.36;75.80
45467;BME280;31212;49.734;8.490;2023-04-01T04:13:52;98617.81;;;9.47;74.73
45467;BME280;31212;49.734;8.490;2023-04-01T04:16:19;98618.72;;;9.45;74.89
45467;BME280;31212;49.734;8.490;2023-04-01T04:18:51;98611.84;;;9.45;74.87
45467;BME280;31212;49.734;8.490;2023-04-01T04:21:19;98602.34;;;9.44;74.94
45467;BME280;31212;49.734;8.490;2023-04-01T04:23:46;98615.25;;;9.46;74.90
45467;BME280;31212;49.734;8.490;2023-04-01T04:26:15;98611.88;;;9.43;74.92
45467;BME280;31212;49.734;8.490;2023-04-01T04:28:47;98603.22;;;9.43;74.50
45467;BME280;31212;49.734;8.490;2023-04-01T04:31:18;98597.97;;;9.48;74.66
45467;BME280;31212;49.734;8.490;2023-04-01T04:33:45;98583.13;;;9.54;74.64
45467;BME280;31212;49.734;8.490;2023-04-01T04:36:12;98580.47;;;9.57;73.50
45467;BME280;31212;49.734;8.490;2023-04-01T04:38:40;98570.91;;;9.59;73.63
45467;BME280;31212;49.734;8.490;2023-04-01T04:41:09;98574.44;;;9.57;73.95
45467;BME280;31212;49.734;8.490;2023-04-01T04:43:37;98571.81;;;9.58;73.83
45467;BME280;31212;49.734;8.490;2023-04-01T04:46:05;98569.28;;;9.57;74.01
45467;BME280;31212;49.734;8.490;2023-04-01T04:48:31;98578.69;;;9.59;73.81
45467;BME280;31212;49.734;8.490;2023-04-01T04:50:58;98589.19;;;9.53;74.24
45467;BME280;31212;49.734;8.490;2023-04-01T04:53:24;98603.81;;;9.56;74.23
45467;BME280;31212;49.734;8.490;2023-04-01T04:55:53;98605.59;;;9.54;74.40
45467;BME280;31212;49.734;8.490;2023-04-01T04:58:44;98616.09;;;9.48;74.37
45467;BME280;31212;49.734;8.490;2023-04-01T05:01:16;98617.81;;;9.47;74.43
45467;BME280;31212;49.734;8.490;2023-04-01T05:03:43;98621.13;;;9.54;74.36
45467;BME280;31212;49.734;8.490;2023-04-01T05:06:11;98636.75;;;9.51;75.18
45467;BME280;31212;49.734;8.490;2023-04-01T05:08:38;98644.41;;;9.55;75.16
45467;BME280;31212;49.734;8.490;2023-04-01T05:11:10;98647.09;;;9.51;74.98
45467;BME280;31212;49.734;8.490;2023-04-01T05:13:40;98652.28;;;9.51;75.49
45467;BME280;31212;49.734;8.490;2023-04-01T05:16:09;98654.94;;;9.48;75.21
45467;BME280;31212;49.734;8.490;2023-04-01T05:18:36;98661.03;;;9.45;75.69
45467;BME280;31212;49.734;8.490;2023-04-01T05:21:02;98658.50;;;9.42;75.58
45467;BME280;31212;49.734;8.490;2023-04-01T05:23:31;98641.19;;;9.44;75.27
45467;BME280;31212;49.734;8.490;2023-04-01T05:25:57;98662.03;;;9.39;75.59
45467;BME280;31212;49.734;8.490;2023-04-01T05:28:25;98658.50;;;9.43;75.55
45467;BME280;31212;49.734;8.490;2023-04-01T05:30:52;98664.59;;;9.41;75.69
45467;BME280;31212;49.734;8.490;2023-04-01T05:33:24;98667.16;;;9.41;75.89
45467;BME280;31212;49.734;8.490;2023-04-01T05:35:50;98672.25;;;9.46;75.93
45467;BME280;31212;49.734;8.490;2023-04-01T05:38:17;98674.03;;;9.43;75.70
45467;BME280;31212;49.734;8.490;2023-04-01T05:40:43;98670.56;;;9.43;75.50
45467;BME280;31212;49.734;8.490;2023-04-01T05:43:11;98662.75;;;9.45;76.02
45467;BME280;31212;49.734;8.490;2023-04-01T05:45:44;98643.69;;;9.49;75.51
45467;BME280;31212;49.734;8.490;2023-04-01T05:48:13;98644.50;;;9.51;75.58
45467;BME280;31212;49.734;8.490;2023-04-01T05:50:40;98640.97;;;9.55;75.47
45467;BME280;31212;49.734;8.490;2023-04-01T05:53:09;98631.63;;;9.48;75.19
45467;BME280;31212;49.734;8.490;2023-04-01T05:55:36;98634.94;;;9.54;75.43
45467;BME280;31212;49.734;8.490;2023-04-01T05:58:05;98611.56;;;9.57;74.51
45467;BME280;31212;49.734;8.490;2023-04-01T06:00:31;98603.75;;;9.59;74.66
45467;BME280;31212;49.734;8.490;2023-04-01T06:03:00;98612.38;;;9.59;74.86
45467;BME280;31212;49.734;8.490;2023-04-01T06:05:29;98601.28;;;9.54;74.44
45467;BME280;31212;49.734;8.490;2023-04-01T06:07:58;98609.00;;;9.56;74.85
45467;BME280;31212;49.734;8.490;2023-04-01T06:10:36;98614.22;;;9.54;75.08
45467;BME280;31212;49.734;8.490;2023-04-01T06:13:11;98615.91;;;9.57;75.08
45467;BME280;31212;49.734;8.490;2023-04-01T06:15:46;98630.59;;;9.55;75.20
45467;BME280;31212;49.734;8.490;2023-04-01T06:18:35;98624.56;;;9.56;75.16
45467;BME280;31212;49.734;8.490;2023-04-01T06:21:09;98626.31;;;9.54;75.26
45467;BME280;31212;49.734;8.490;2023-04-01T06:23:58;98636.66;;;9.54;75.19
45467;BME280;31212;49.734;8.490;2023-04-01T06:26:33;98623.69;;;9.57;74.83
45467;BME280;31212;49.734;8.490;2023-04-01T06:29:33;98634.03;;;9.55;75.41
45467;BME280;31212;49.734;8.490;2023-04-01T06:32:31;98615.94;;;9.54;75.00
45467;BME280;31212;49.734;8.490;2023-04-01T06:35:19;98617.63;;;9.56;75.30
45467;BME280;31212;49.734;8.490;2023-04-01T06:37:52;98597.72;;;9.58;74.85
45467;BME280;31212;49.734;8.490;2023-04-01T06:40:41;98592.50;;;9.60;74.81
45467;BME280;31212;49.734;8.490;2023-04-01T06:43:18;98595.06;;;9.62;74.36
45467;BME280;31212;49.734;8.490;2023-04-01T06:46:09;98613.28;;;9.58;74.61
45467;BME280;31212;49.734;8.490;2023-04-01T06:49:11;98603.69;;;9.62;75.12
45467;BME280;31212;49.734;8.490;2023-04-01T06:52:11;98600.16;;;9.65;74.65
45467;BME280;31212;49.734;8.490;2023-04-01T06:55:25;98595.03;;;9.63;74.27
45467;BME280;31212;49.734;8.490;2023-04-01T06:58:20;98603.69;;;9.62;74.69
45467;BME280;31212;49.734;8.490;2023-04-01T07:00:49;98607.88;;;9.68;74.61
45467;BME280;31212;49.734;8.490;2023-04-01T07:03:21;98614.66;;;9.73;74.51
45467;BME280;31212;49.734;8.490;2023-04-01T07:05:48;98623.28;;;9.74;74.62
45467;BME280;31212;49.734;8.490;2023-04-01T07:08:20;98625.03;;;9.73;74.52
45467;BME280;31212;49.734;8.490;2023-04-01T07:10:51;98628.47;;;9.74;74.49
45467;BME280;31212;49.734;8.490;2023-04-01T07:13:49;98643.91;;;9.80;74.85
45467;BME280;31212;49.734;8.490;2023-04-01T07:16:20;98651.47;;;9.88;74.99
45467;BME280;31212;49.734;8.490;2023-04-01T07:18:50;98651.44;;;9.91;75.01
45467;BME280;31212;49.734;8.490;2023-04-01T07:21:26;98663.44;;;9.95;75.47
45467;BME280;31212;49.734;8.490;2023-04-01T07:24:04;98660.47;;;10.10;75.66
45467;BME280;31212;49.734;8.490;2023-04-01T07:26:36;98660.22;;;10.21;75.10
45467;BME280;31212;49.734;8.490;2023-04-01T07:29:13;98645.44;;;10.25;75.05
45467;BME280;31212;49.734;8.490;2023-04-01T07:32:07;98629.56;;;10.39;74.34
45467;BME280;31212;49.734;8.490;2023-04-01T07:34:40;98614.63;;;10.50;73.93
45467;BME280;31212;49.734;8.490;2023-04-01T07:37:13;98600.19;;;10.71;73.49
45467;BME280;31212;49.734;8.490;2023-04-01T07:39:50;98584.31;;;10.84;73.25
45467;BME280;31212;49.734;8.490;2023-04-01T07:42:40;98565.97;;;10.90;72.75
45467;BME280;31212;49.734;8.490;2023-04-01T07:45:14;98556.06;;;11.04;72.50
45467;BME280;31212;49.734;8.490;2023-04-01T07:48:00;98541.22;;;11.08;72.01
45467;BME280;31212;49.734;8.490;2023-04-01T07:50:32;98551.59;;;11.08;72.05
45467;BME280;31212;49.734;8.490;2023-04-01T07:53:07;98540.69;;;10.97;71.54
45467;BME280;31212;49.734;8.490;2023-04-01T07:55:42;98538.13;;;10.95;72.11
45467;BME280;31212;49.734;8.490;2023-04-01T07:58:14;98557.09;;;10.99;72.79
45467;BME280;31212;49.734;8.490;2023-04-01T08:00:51;98563.06;;;11.01;72.52
45467;BME280;31212;49.734;8.490;2023-04-01T08:03:35;98582.22;;;10.97;72.31
45467;BME280;31212;49.734;8.490;2023-04-01T08:06:12;98577.47;;;10.81;72.80
45467;BME280;31212;49.734;8.490;2023-04-01T08:08:51;98587.13;;;10.76;73.13
45467;BME280;31212;49.734;8.490;2023-04-01T08:11:52;98593.19;;;10.75;73.70
45467;BME280;31212;49.734;8.490;2023-04-01T08:14:48;98613.22;;;10.70;73.08
45467;BME280;31212;49.734;8.490;2023-04-01T08:17:54;98643.50;;;10.71;73.39
45467;BME280;31212;49.734;8.490;2023-04-01T08:20:30;98641.03;;;10.66;73.75
45467;BME280;31212;49.734;8.490;2023-04-01T08:23:05;98669.78;;;10.57;74.44
45467;BME280;31212;49.734;8.490;2023-04-01T08:25:39;98688.00;;;10.55;74.62
45467;BME280;31212;49.734;8.490;2023-04-01T08:28:15;98695.78;;;10.54;74.86
45467;BME280;31212;49.734;8.490;2023-04-01T08:30:47;98700.03;;;10.58;74.70
45467;BME280;31212;49.734;8.490;2023-04-01T08:33:21;98701.38;;;10.73;75.02
45467;BME280;31212;49.734;8.490;2023-04-01T08:35:56;98685.75;;;10.76;74.71
45467;BME280;31212;49.734;8.490;2023-04-01T08:38:30;98692.84;;;10.69;74.49
45467;BME280;31212;49.734;8.490;2023-04-01T08:41:00;98693.41;;;10.81;74.24
45467;BME280;31212;49.734;8.490;2023-04-01T08:43:59;98707.31;;;10.78;74.39
45467;BME280;31212;49.734;8.490;2023-04-01T08:46:46;98708.97;;;10.81;75.40
45467;BME280;31212;49.734;8.490;2023-04-01T08:49:32;98709.59;;;10.90;74.96
45467;BME280;31212;49.734;8.490;2023-04-01T08:52:34;98697.19;;;11.02;74.57
45467;BME280;31212;49.734;8.490;2023-04-01T08:55:27;98688.25;;;11.14;74.66
45467;BME280;31212;49.734;8.490;2023-04-01T08:58:34;98692.16;;;11.28;74.22
45467;BME280;31212;49.734;8.490;2023-04-01T09:01:26;98668.44;;;11.41;74.15
45467;BME280;31212;49.734;8.490;2023-04-01T09:04:13;98668.53;;;11.36;73.55
45467;BME280;31212;49.734;8.490;2023-04-01T09:06:52;98690.41;;;11.29;74.13
45467;BME280;31212;49.734;8.490;2023-04-01T09:10:03;98686.97;;;11.28;74.34
45467;BME280;31212;49.734;8.490;2023-04-01T09:12:44;98696.34;;;11.34;73.86
45467;BME280;31212;49.734;8.490;2023-04-01T09:15:29;98693.31;;;11.18;73.92
45467;BME280;31212;49.734;8.490;2023-04-01T09:18:13;98716.84;;;11.12;74.52
45467;BME280;31212;49.734;8.490;2023-04-01T09:21:04;98736.63;;;11.18;75.28
45467;BME280;31212;49.734;8.490;2023-04-01T09:23:44;98759.72;;;11.28;75.82
45467;BME280;31212;49.734;8.490;2023-04-01T09:26:24;98746.63;;;11.32;75.72
45467;BME280;31212;49.734;8.490;2023-04-01T09:29:02;98744.38;;;11.51;75.12
45467;BME280;31212;49.734;8.490;2023-04-01T09:31:51;98734.97;;;11.47;74.83
45467;BME280;31212;49.734;8.490;2023-04-01T09:34:54;98764.66;;;11.38;75.38
45467;BME280;31212;49.734;8.490;2023-04-01T09:37:39;98802.66;;;11.07;76.73
45467;BME280;31212;49.734;8.490;2023-04-01T09:40:25;98846.94;;;11.03;77.43
45467;BME280;31212;49.734;8.490;2023-04-01T09:43:21;98907.88;;;10.86;78.71
45467;BME280;31212;49.734;8.490;2023-04-01T09:45:58;98916.09;;;10.68;79.72
45467;BME280;31212;49.734;8.490;2023-04-01T09:48:50;98924.81;;;10.64;80.29
45467;BME280;31212;49.734;8.490;2023-04-01T09:51:34;98938.31;;;10.80;81.40
45467;BME280;31212;49.734;8.490;2023-04-01T09:54:20;98931.38;;;10.80;80.58
45467;BME280;31212;49.734;8.490;2023-04-01T10:07:24;98871.16;;;11.39;79.00
45467;BME280;31212;49.734;8.490;2023-04-01T10:10:34;98842.28;;;11.50;78.92
45467;BME280;31212;49.734;8.490;2023-04-01T10:13:23;98814.84;;;11.73;77.10
45467;BME280;31212;49.734;8.490;2023-04-01T10:16:15;98799.00;;;11.81;77.43
45467;BME280;31212;49.734;8.490;2023-04-01T10:19:14;98789.47;;;11.81;76.41
45467;BME280;31212;49.734;8.490;2023-04-01T10:22:10;98785.94;;;11.84;76.32
45467;BME280;31212;49.734;8.490;2023-04-01T10:25:05;98784.28;;;11.81;76.16
45467;BME280;31212;49.734;8.490;2023-04-01T10:27:49;98785.38;;;11.72;76.71
45467;BME280;31212;49.734;8.490;2023-04-01T10:31:18;98790.66;;;11.69;76.42
45467;BME280;31212;49.734;8.490;2023-04-01T10:37:15;98793.31;;;11.99;75.93
45467;BME280;31212;49.734;8.490;2023-04-01T10:40:18;98763.06;;;11.97;75.80
45467;BME280;31212;49.734;8.490;2023-04-01T10:44:03;98748.81;;;11.78;75.32
45467;BME280;31212;49.734;8.490;2023-04-01T10:52:56;98808.56;;;11.80;76.65
45467;BME280;31212;49.734;8.490;2023-04-01T11:02:17;98884.06;;;11.77;78.32
45467;BME280;31212;49.734;8.490;2023-04-01T11:05:51;98887.41;;;11.81;78.83
45467;BME280;31212;49.734;8.490;2023-04-01T11:11:54;98928.97;;;11.48;80.35
45467;BME280;31212;49.734;8.490;2023-04-01T11:17:54;98968.88;;;11.45;81.14
45467;BME280;31212;49.734;8.490;2023-04-01T11:23:50;98976.34;;;11.21;82.28
45467;BME280;31212;49.734;8.490;2023-04-01T11:26:31;98993.56;;;11.25;82.87
45467;BME280;31212;49.734;8.490;2023-04-01T11:29:45;98997.19;;;11.18;82.82
45467;BME280;31212;49.734;8.490;2023-04-01T11:32:31;99013.84;;;11.09;83.83
45467;BME280;31212;49.734;8.490;2023-04-01T11:35:22;99012.22;;;11.05;83.88
45467;BME280;31212;49.734;8.490;2023-04-01T11:37:57;99006.53;;;10.88;84.26
45467;BME280;31212;49.734;8.490;2023-04-01T11:40:51;99035.09;;;10.86;85.44
45467;BME280;31212;49.734;8.490;2023-04-01T11:43:49;99046.41;;;10.82;86.81
45467;BME280;31212;49.734;8.490;2023-04-01T11:47:19;99055.84;;;10.86;87.07
45467;BME280;31212;49.734;8.490;2023-04-01T11:49:59;99057.47;;;10.93;88.01
45467;BME280;31212;49.734;8.490;2023-04-01T11:52:52;99021.25;;;10.86;86.49
45467;BME280;31212;49.734;8.490;2023-04-01T11:55:30;99003.84;;;10.91;85.65
45467;BME280;31212;49.734;8.490;2023-04-01T11:58:12;98984.69;;;10.97;86.04
45467;BME280;31212;49.734;8.490;2023-04-01T12:01:02;98982.00;;;11.00;85.04
45467;BME280;31212;49.734;8.490;2023-04-01T12:03:46;98976.66;;;11.07;84.62
45467;BME280;31212;49.734;8.490;2023-04-01T12:06:23;98966.50;;;10.97;83.84
45467;BME280;31212;49.734;8.490;2023-04-01T12:09:01;98980.34;;;10.97;84.39
45467;BME280;31212;49.734;8.490;2023-04-01T12:11:34;98972.31;;;11.08;84.29
45467;BME280;31212;49.734;8.490;2023-04-01T12:14:09;98976.44;;;11.56;83.75
45467;BME280;31212;49.734;8.490;2023-04-01T12:16:50;98945.41;;;11.84;81.90
45467;BME280;31212;49.734;8.490;2023-04-01T12:19:31;98903.25;;;12.06;80.60
45467;BME280;31212;49.734;8.490;2023-04-01T12:22:17;98873.84;;;12.02;79.16
45467;BME280;31212;49.734;8.490;2023-04-01T12:24:49;98855.44;;;12.10;78.72
45467;BME280;31212;49.734;8.490;2023-04-01T12:27:31;98831.25;;;12.06;77.80
45467;BME280;31212;49.734;8.490;2023-04-01T12:33:04;98840.69;;;12.10;78.45
45467;BME280;31212;49.734;8.490;2023-04-01T12:35:46;98819.97;;;12.07;77.85
45467;BME280;31212;49.734;8.490;2023-04-01T12:38:28;98811.59;;;11.98;77.27
45467;BME280;31212;49.734;8.490;2023-04-01T12:41:08;98795.31;;;11.89;77.43
45467;BME280;31212;49.734;8.490;2023-04-01T12:43:57;98801.84;;;11.71;77.47
45467;BME280;31212;49.734;8.490;2023-04-01T12:46:29;98827.41;;;11.57;77.71
45467;BME280;31212;49.734;8.490;2023-04-01T12:49:08;98835.69;;;11.37;78.20
45467;BME280;31212;49.734;8.490;2023-04-01T12:51:43;98859.34;;;11.26;78.62
45467;BME280;31212;49.734;8.490;2023-04-01T12:57:31;98882.78;;;11.24;79.08
45467;BME280;31212;49.734;8.490;2023-04-01T13:00:16;98884.53;;;11.22;79.95
45467;BME280;31212;49.734;8.490;2023-04-01T13:03:02;98880.28;;;11.20;79.36
45467;BME280;31212;49.734;8.490;2023-04-01T13:05:57;98898.41;;;11.23;79.60
45467;BME280;31212;49.734;8.490;2023-04-01T13:08:39;98915.53;;;11.30;79.23
45467;BME280;31212;49.734;8.490;2023-04-01T13:11:15;98920.56;;;11.36;79.52
45467;BME280;31212;49.734;8.490;2023-04-01T13:14:10;98944.38;;;11.19;80.78
45467;BME280;31212;49.734;8.490;2023-04-01T13:16:46;98981.16;;;10.99;81.36
45467;BME280;31212;49.734;8.490;2023-04-01T13:19:22;99004.53;;;10.99;83.01
45467;BME280;31212;49.734;8.490;2023-04-01T13:21:57;99020.00;;;11.04;82.86
45467;BME280;31212;49.734;8.490;2023-04-01T13:24:40;99012.44;;;10.94;83.39
45467;BME280;31212;49.734;8.490;2023-04-01T13:27:14;99038.53;;;10.88;83.96
45467;BME280;31212;49.734;8.490;2023-04-01T13:29:47;99021.56;;;10.72;83.77
45467;BME280;31212;49.734;8.490;2023-04-01T13:32:23;99031.91;;;10.73;83.31
45467;BME280;31212;49.734;8.490;2023-04-01T13:35:03;99041.22;;;10.82;83.41
45467;BME280;31212;49.734;8.490;2023-04-01T13:37:48;99050.44;;;10.97;83.38
45467;BME280;31212;49.734;8.490;2023-04-01T13:40:38;99034.72;;;11.05;83.70
45467;BME280;31212;49.734;8.490;2023-04-01T13:43:12;99030.63;;;10.94;83.71
45467;BME280;31212;49.734;8.490;2023-04-01T13:46:08;99047.31;;;10.81;84.49
45467;BME280;31212;49.734;8.490;2023-04-01T13:48:58;99068.97;;;10.80;85.19
45467;BME280;31212;49.734;8.490;2023-04-01T13:51:46;99074.13;;;10.82;85.37
45467;BME280;31212;49.734;8.490;2023-04-01T13:54:32;99080.88;;;10.90;85.58
45467;BME280;31212;49.734;8.490;2023-04-01T13:57:20;99075.44;;;11.04;85.33
45467;BME280;31212;49.734;8.490;2023-04-01T13:59:59;99084.72;;;11.16;85.63
45467;BME280;31212;49.734;8.490;2023-04-01T14:02:49;99060.03;;;10.95;85.09
45467;BME280;31212;49.734;8.490;2023-04-01T14:05:35;99075.59;;;10.95;85.36
45467;BME280;31212;49.734;8.490;2023-04-01T14:08:15;99091.28;;;10.89;85.38
45467;BME280;31212;49.734;8.490;2023-04-01T14:10:50;99071.59;;;10.79;85.05
45467;BME280;31212;49.734;8.490;2023-04-01T14:13:30;99094.97;;;10.79;85.59
45467;BME280;31212;49.734;8.490;2023-04-01T14:16:19;99095.97;;;10.70;86.12
45467;BME280;31212;49.734;8.490;2023-04-01T14:19:11;99091.59;;;10.73;86.27
45467;BME280;31212;49.734;8.490;2023-04-01T14:21:46;99089.72;;;10.82;85.75
45467;BME280;31212;49.734;8.490;2023-04-01T14:24:36;99078.28;;;10.90;85.41
45467;BME280;31212;49.734;8.490;2023-04-01T14:27:35;99074.66;;;10.99;85.25
45467;BME280;31212;49.734;8.490;2023-04-01T14:30:17;99064.31;;;10.98;84.69
45467;BME280;31212;49.734;8.490;2023-04-01T14:32:54;99068.63;;;10.99;84.17
45467;BME280;31212;49.734;8.490;2023-04-01T14:35:32;99075.38;;;11.06;84.71
45467;BME280;31212;49.734;8.490;2023-04-01T14:38:30;99067.63;;;11.04;84.43
45467;BME280;31212;49.734;8.490;2023-04-01T14:41:19;99083.53;;;10.87;85.19
45467;BME280;31212;49.734;8.490;2023-04-01T14:43:54;99107.09;;;10.76;85.98